• Join FlightAware (Why Join?)
  • Login
  • US Flag 
07:36PM EDT


 

Airport Tracker/Info


-or-


 

Live Flight TrackerFlight Track Log ✈ AAL991 ✈ 11-May-2013 ✈ KMIA - SBCF / CNF

Flight Track Log - Related Links

Times and Time Zones

All times are in EDT time to prevent confusion due to time zone crossing. See the AAL991 flight status page for this flight to view local times or setup timezone preferences in your user account.

Time Position Orientation Groundspeed Altitude Reporting Facility
EDT Latitude Longitude Course Direction KTS MPH feet Rate Location/Type
12:16AM 25.8030 -80.3050 270° West 180 207 400  Level FlightAware
12:16AM 25.8000 -80.3330 263° West 186 214 1,700 2,040 Climbing FlightAware
12:17AM 25.7960 -80.3540 258° West 202 232 2,300 1,260 Climbing FlightAware
12:17AM 25.7920 -80.3900 263° West 237 273 2,900 1,560 Climbing FlightAware
12:17AM 25.7890 -80.4090 260° West 244 281 3,500 2,400 Climbing FlightAware
12:18AM 25.7850 -80.4200 248° West 250 288 3,900 1,920 Climbing FlightAware
12:18AM 25.7710 -80.4330 220° Southwest 269 310 4,300 2,160 Climbing FlightAware
12:18AM 25.7520 -80.4380 193° South 276 318 5,000 2,760 Climbing FlightAware
12:18AM 25.7340 -80.4410 189° South 277 319 5,700 2,520 Climbing FlightAware
12:19AM 25.7010 -80.4530 198° South 283 326 6,900 2,880 Climbing FlightAware
12:19AM 25.6900 -80.4550 189° South 284 327 7,400 2,940 Climbing FlightAware
12:20AM 25.6360 -80.4170 148° Southeast 292 336 9,600 2,460 Climbing FlightAware
12:20AM 25.6270 -80.4060 132° Southeast 293 337 9,900 1,020 Climbing FlightAware
12:21AM 25.5590 -80.3210 132° Southeast 343 395 11,000 900 Climbing FlightAware
12:22AM 25.4770 -80.2130 130° Southeast 388 447 12,100 1,020 Climbing FlightAware
12:23AM 25.3980 -80.1110 131° Southeast 410 472 13,500 1,500 Climbing FlightAware
12:25AM 25.3010 -79.9900 132° Southeast 419 482 15,600 1,740 Climbing FlightAware
12:26AM 25.1600 -79.8870 147° Southeast 425 489 18,300 1,500 Climbing FlightAware
12:27AM 25.0770 -79.8260 146° Southeast 442 509 19,200 1,080 Climbing FlightAware
12:27AM 25.0260 -79.7890 147° Southeast 441 507 19,800 1,200 Climbing FlightAware
12:29AM 24.9120 -79.7080 147° Southeast 462 532 21,100 1,200 Climbing FlightAware
12:29AM 24.8420 -79.6580 147° Southeast 462 532 22,000 600 Climbing FlightAware
12:30AM 24.7680 -79.6030 146° Southeast 462 532 22,000  Level FlightAware
12:31AM 24.7080 -79.5580 146° Southeast 462 532 22,000  Level FlightAware
12:31AM 24.6470 -79.5140 147° Southeast 462 532 22,000  Level FlightAware
12:32AM 24.5870 -79.4690 146° Southeast 462 532 22,000  Level FlightAware
12:33AM 24.5120 -79.4130 146° Southeast 462 532 22,000 4,680 Level FlightAware
12:33AM 24.3567 -79.3200 146° Southeast 497 572 28,100 5,280 Climbing Miami Center
12:34AM 24.2411 -79.2336 146° Southeast 503 579 29,800 1,560 Climbing Miami Center
12:35AM 24.1336 -79.1678 151° Southeast 496 571 31,300 1,260 Climbing Miami Center
12:36AM 24.0178 -79.0883 148° Southeast 493 567 32,400 780 Climbing Miami Center
12:37AM 23.9019 -79.0000 145° Southeast 498 573 33,000 240 Climbing Miami Center
12:38AM 23.7861 -78.9117 145° Southeast 504 580 33,000  Level Miami Center
12:39AM 23.6703 -78.8258 146° Southeast 504 580 33,000  Level Miami Center
12:40AM 23.5481 -78.7356 146° Southeast 504 580 33,000  Level Miami Center
12:41AM 23.4342 -78.6525 146° Southeast 504 580 33,000  Level Miami Center
12:42AM 23.3161 -78.5647 146° Southeast 514 592 33,000  Level Miami Center
12:43AM 23.1939 -78.4683 144° Southeast 519 597 33,000  Level Miami Center
12:44AM 23.0778 -78.3878 147° Southeast 519 597 33,000  Level Miami Center
12:45AM 22.9617 -78.3031 146° Southeast 510 587 33,000  Level Miami Center
12:46AM 22.8414 -78.2136 146° Southeast 516 594 33,000  Level Miami Center
12:47AM 22.7208 -78.1178 144° Southeast 523 602 33,000  Level Miami Center
12:48AM 22.6006 -78.0289 146° Southeast 521 600 33,000  Level Miami Center
12:49AM 22.4819 -77.9492 148° Southeast 521 600 33,100 780 Climbing Miami Center
12:50AM 22.3656 -77.8653 146° Southeast 521 600 34,600 960 Climbing Miami Center
12:51AM 22.2428 -77.7789 147° Southeast 521 600 35,000 180 Climbing Miami Center
12:52AM 22.1264 -77.6931 146° Southeast 521 600 35,000  Level Miami Center
12:53AM 22.0056 -77.6050 146° Southeast 516 594 35,000  Level Miami Center
12:54AM 21.8850 -77.5192 147° Southeast 521 600 35,000  Level Miami Center
12:55AM 21.7661 -77.4336 146° Southeast 516 594 35,000  Level Miami Center
12:56AM 21.6475 -77.3483 146° Southeast 528 608 35,000  Level Miami Center
12:57AM 21.5244 -77.2608 147° Southeast 533 613 35,000  Level Miami Center
12:58AM 21.3994 -77.1689 146° Southeast 533 613 35,000  Level Miami Center
12:59AM 21.2764 -77.0817 147° Southeast 525 604 35,000  Level Miami Center
01:00AM 21.1428 -76.9792 144° Southeast 531 611 35,000  Level Miami Center
01:01AM 21.0197 -76.8925 147° Southeast 531 611 35,000  Level Miami Center
01:02AM 20.8986 -76.8058 146° Southeast 531 611 35,000  Level Miami Center
01:03AM 20.7753 -76.7214 147° Southeast 531 611 35,000  Level Miami Center
01:04AM 20.6561 -76.6331 145° Southeast 526 605 35,000  Level Miami Center
01:05AM 20.5308 -76.5467 147° Southeast 531 611 35,000  Level Miami Center
01:06AM 20.4075 -76.4606 147° Southeast 531 611 35,000  Level Miami Center
01:07AM 20.2839 -76.3747 147° Southeast 531 611 35,000  Level Miami Center
01:08AM 20.1628 -76.2869 146° Southeast 531 611 35,000  Level Miami Center
01:09AM 20.0414 -76.2011 146° Southeast 526 605 35,000  Level Miami Center
01:10AM 19.9200 -76.1181 147° Southeast 526 605 35,000  Level Miami Center
01:11AM 19.7964 -76.0306 146° Southeast 531 611 35,000  Level Miami Center
01:12AM 19.6750 -75.9497 148° Southeast 531 611 35,000  Level Miami Center
01:13AM 19.5556 -75.8647 146° Southeast 531 611 35,000  Level Miami Center
01:14AM 19.4297 -75.7775 147° Southeast 531 611 35,000  Level Miami Center
01:15AM 19.3103 -75.6972 148° Southeast 531 611 35,000  Level Miami Center
01:16AM 19.1908 -75.6106 146° Southeast 526 605 35,000  Level Miami Center
01:17AM 19.0797 -75.5369 148° Southeast 526 605 35,000  Level Miami Center
01:18AM 18.9581 -75.4525 147° Southeast 525 604 35,000  Level Miami Center
01:19AM 18.8344 -75.3706 148° Southeast 530 610 35,000  Level Miami Center
01:20AM 18.7147 -75.2886 147° Southeast 530 610 35,000  Level Miami Center
01:21AM 18.5908 -75.2028 147° Southeast 530 610 35,000  Level Miami Center
01:22AM 18.4714 -75.1189 146° Southeast 530 610 35,000  Level Miami Center
01:23AM 18.3517 -75.0308 145° Southeast 530 610 35,000  Level Miami Center
01:24AM 18.2297 -74.9453 146° Southeast 530 610 35,000  Level Miami Center
01:25AM 18.1078 -74.8597 146° Southeast 530 610 35,000  Level Miami Center
01:26AM 17.9861 -74.7742 146° Southeast 530 610 35,000  Level Miami Center
01:27AM 17.8661 -74.6869 145° Southeast 530 610 35,000  Level Miami Center
01:28AM 17.7422 -74.6017 147° Southeast 530 610 35,000  Level Miami Center
01:29AM 17.6203 -74.5211 148° Southeast 530 610 35,000  Level Miami Center
01:30AM 17.5003 -74.4342 145° Southeast 530 610 35,000  Level Miami Center
01:32AM 17.3887 -74.3075 133° Southeast  Level FlightAware Approximate
01:39AM 16.7625 -73.6008 133° Southeast  Level FlightAware Approximate
01:40AM 16.6728 -73.5002 133° Southeast  Level FlightAware Approximate
01:41AM 16.5805 -73.3973 137° Southeast  Level FlightAware Approximate
01:42AM 16.4836 -73.3044 137° Southeast  Level FlightAware Approximate
01:43AM 16.3867 -73.2116 137° Southeast  Level FlightAware Approximate
01:44AM 16.2897 -73.1189 137° Southeast  Level FlightAware Approximate
01:45AM 16.1927 -73.0263 137° Southeast  Level FlightAware Approximate
01:46AM 16.0956 -72.9338 138° Southeast  Level FlightAware Approximate
01:47AM 15.9985 -72.8414 138° Southeast  Level FlightAware Approximate
01:48AM 15.9014 -72.7490 138° Southeast  Level FlightAware Approximate
01:49AM 15.8042 -72.6568 138° Southeast  Level FlightAware Approximate
01:50AM 15.7070 -72.5646 138° Southeast  Level FlightAware Approximate
01:51AM 15.6097 -72.4726 138° Southeast  Level FlightAware Approximate
01:52AM 15.5125 -72.3806 138° Southeast  Level FlightAware Approximate
01:53AM 15.4151 -72.2887 138° Southeast  Level FlightAware Approximate
01:54AM 15.3178 -72.1969 138° Southeast  Level FlightAware Approximate
01:55AM 15.2204 -72.1052 138° Southeast  Level FlightAware Approximate
01:56AM 15.1229 -72.0135 138° Southeast  Level FlightAware Approximate
01:57AM 15.0254 -71.9220 138° Southeast  Level FlightAware Approximate
01:58AM 14.9279 -71.8305 138° Southeast  Level FlightAware Approximate
01:59AM 14.8304 -71.7391 138° Southeast  Level FlightAware Approximate
02:00AM 14.7328 -71.6478 138° Southeast  Level FlightAware Approximate
02:01AM 14.6352 -71.5566 138° Southeast  Level FlightAware Approximate
02:02AM 14.5375 -71.4654 138° Southeast  Level FlightAware Approximate
02:03AM 14.4398 -71.3744 138° Southeast  Level FlightAware Approximate
02:04AM 14.3421 -71.2834 138° Southeast  Level FlightAware Approximate
02:05AM 14.2443 -71.1925 138° Southeast  Level FlightAware Approximate
02:06AM 14.1465 -71.1017 138° Southeast  Level FlightAware Approximate
02:07AM 14.0487 -71.0109 138° Southeast  Level FlightAware Approximate
02:08AM 13.9508 -70.9203 138° Southeast  Level FlightAware Approximate
02:09AM 13.8529 -70.8297 138° Southeast  Level FlightAware Approximate
02:10AM 13.7550 -70.7392 138° Southeast  Level FlightAware Approximate
02:11AM 13.6571 -70.6487 138° Southeast  Level FlightAware Approximate
02:12AM 13.5590 -70.5584 138° Southeast  Level FlightAware Approximate
02:13AM 13.4610 -70.4681 138° Southeast  Level FlightAware Approximate
02:14AM 13.3630 -70.3779 138° Southeast  Level FlightAware Approximate
02:15AM 13.2649 -70.2877 138° Southeast  Level FlightAware Approximate
02:16AM 13.1667 -70.1976 138° Southeast  Level FlightAware Approximate
02:17AM 13.0686 -70.1077 138° Southeast  Level FlightAware Approximate
02:18AM 12.9704 -70.0177 138° Southeast  Level FlightAware Approximate
02:19AM 12.8722 -69.9279 138° Southeast  Level FlightAware Approximate
02:20AM 12.7739 -69.8381 138° Southeast  Level FlightAware Approximate
02:21AM 12.6756 -69.7484 138° Southeast  Level FlightAware Approximate
02:22AM 12.5808 -69.6619 138° Southeast  Level FlightAware Approximate
02:23AM 12.4859 -69.5754 138° Southeast  Level FlightAware Approximate
02:24AM 12.3910 -69.4891 138° Southeast  Level FlightAware Approximate
02:25AM 12.2961 -69.4028 138° Southeast  Level FlightAware Approximate
02:26AM 12.2011 -69.3165 138° Southeast  Level FlightAware Approximate
02:27AM 12.1061 -69.2304 138° Southeast  Level FlightAware Approximate
02:28AM 12.0111 -69.1442 138° Southeast  Level FlightAware Approximate
02:29AM 11.9161 -69.0582 138° Southeast  Level FlightAware Approximate
02:30AM 11.8204 -68.9729 142° Southeast  Level FlightAware Approximate
02:31AM 11.7209 -68.8924 142° Southeast  Level FlightAware Approximate
02:32AM 11.6213 -68.8120 142° Southeast  Level FlightAware Approximate
02:33AM 11.5217 -68.7316 142° Southeast  Level FlightAware Approximate
02:34AM 11.4221 -68.6513 142° Southeast  Level FlightAware Approximate
02:35AM 11.3224 -68.5710 142° Southeast  Level FlightAware Approximate
02:36AM 11.2228 -68.4908 142° Southeast  Level FlightAware Approximate
02:37AM 11.1231 -68.4106 142° Southeast  Level FlightAware Approximate
02:38AM 11.0234 -68.3305 142° Southeast  Level FlightAware Approximate
02:39AM 10.9237 -68.2505 142° Southeast  Level FlightAware Approximate
02:40AM 10.8239 -68.1705 142° Southeast  Level FlightAware Approximate
02:41AM 10.7241 -68.0905 142° Southeast  Level FlightAware Approximate
02:42AM 10.6244 -68.0106 142° Southeast  Level FlightAware Approximate
02:43AM 10.5246 -67.9308 142° Southeast  Level FlightAware Approximate
02:44AM 10.4247 -67.8510 142° Southeast  Level FlightAware Approximate
02:45AM 10.3249 -67.7713 142° Southeast  Level FlightAware Approximate
02:46AM 10.2250 -67.6916 142° Southeast  Level FlightAware Approximate
02:47AM 10.1251 -67.6120 142° Southeast  Level FlightAware Approximate
02:48AM 10.0252 -67.5324 142° Southeast  Level FlightAware Approximate
02:49AM 9.9253 -67.4529 142° Southeast  Level FlightAware Approximate
02:50AM 9.8253 -67.3734 142° Southeast  Level FlightAware Approximate
02:51AM 9.7254 -67.2940 142° Southeast  Level FlightAware Approximate
02:52AM 9.6254 -67.2146 142° Southeast  Level FlightAware Approximate
02:53AM 9.5254 -67.1352 142° Southeast  Level FlightAware Approximate
02:54AM 9.4254 -67.0559 142° Southeast  Level FlightAware Approximate
02:55AM 9.3253 -66.9767 142° Southeast  Level FlightAware Approximate
02:56AM 9.2253 -66.8975 142° Southeast  Level FlightAware Approximate
02:57AM 9.1252 -66.8183 142° Southeast  Level FlightAware Approximate
02:58AM 9.0251 -66.7392 142° Southeast  Level FlightAware Approximate
02:59AM 8.9250 -66.6601 142° Southeast  Level FlightAware Approximate
03:00AM 8.8249 -66.5811 142° Southeast  Level FlightAware Approximate
03:01AM 8.7248 -66.5021 142° Southeast  Level FlightAware Approximate
03:02AM 8.6246 -66.4232 142° Southeast  Level FlightAware Approximate
03:03AM 8.5245 -66.3443 142° Southeast  Level FlightAware Approximate
03:04AM 8.4243 -66.2654 142° Southeast  Level FlightAware Approximate
03:05AM 8.3241 -66.1866 142° Southeast  Level FlightAware Approximate
03:06AM 8.2239 -66.1078 142° Southeast  Level FlightAware Approximate
03:07AM 8.1236 -66.0291 142° Southeast  Level FlightAware Approximate
03:08AM 8.0234 -65.9504 142° Southeast  Level FlightAware Approximate
03:09AM 7.9231 -65.8717 142° Southeast  Level FlightAware Approximate
03:10AM 7.8229 -65.7931 142° Southeast  Level FlightAware Approximate
03:11AM 7.7226 -65.7145 142° Southeast  Level FlightAware Approximate
03:12AM 7.6223 -65.6360 142° Southeast  Level FlightAware Approximate
03:13AM 7.5219 -65.5575 142° Southeast  Level FlightAware Approximate
03:14AM 7.4216 -65.4790 142° Southeast  Level FlightAware Approximate
03:15AM 7.3213 -65.4006 142° Southeast  Level FlightAware Approximate
03:16AM 7.2209 -65.3222 142° Southeast  Level FlightAware Approximate
03:17AM 7.1205 -65.2438 142° Southeast  Level FlightAware Approximate
03:18AM 7.0201 -65.1655 142° Southeast  Level FlightAware Approximate
03:19AM 6.9197 -65.0872 142° Southeast  Level FlightAware Approximate
03:20AM 6.8193 -65.0089 142° Southeast  Level FlightAware Approximate
03:21AM 6.7189 -64.9307 142° Southeast  Level FlightAware Approximate
03:22AM 6.6185 -64.8525 142° Southeast  Level FlightAware Approximate
03:23AM 6.5180 -64.7743 142° Southeast  Level FlightAware Approximate
03:24AM 6.4176 -64.6962 142° Southeast  Level FlightAware Approximate
03:25AM 6.3171 -64.6180 142° Southeast  Level FlightAware Approximate
03:26AM 6.2166 -64.5400 142° Southeast  Level FlightAware Approximate
03:27AM 6.1161 -64.4619 142° Southeast  Level FlightAware Approximate
03:28AM 6.0156 -64.3839 142° Southeast  Level FlightAware Approximate
03:29AM 5.9151 -64.3059 142° Southeast  Level FlightAware Approximate
03:30AM 5.8145 -64.2279 142° Southeast  Level FlightAware Approximate
03:31AM 5.7140 -64.1500 142° Southeast  Level FlightAware Approximate
03:32AM 5.6135 -64.0721 142° Southeast  Level FlightAware Approximate
03:33AM 5.5129 -63.9942 142° Southeast  Level FlightAware Approximate
03:34AM 5.4123 -63.9164 142° Southeast  Level FlightAware Approximate
03:35AM 5.3117 -63.8385 142° Southeast  Level FlightAware Approximate
03:36AM 5.2112 -63.7607 142° Southeast  Level FlightAware Approximate
03:37AM 5.1106 -63.6830 142° Southeast  Level FlightAware Approximate
03:38AM 5.0100 -63.6052 142° Southeast  Level FlightAware Approximate
03:39AM 4.9093 -63.5275 142° Southeast  Level FlightAware Approximate
03:40AM 4.8087 -63.4498 142° Southeast  Level FlightAware Approximate
03:41AM 4.7081 -63.3721 142° Southeast  Level FlightAware Approximate
03:42AM 4.6074 -63.2944 142° Southeast  Level FlightAware Approximate
03:43AM 4.5068 -63.2168 142° Southeast  Level FlightAware Approximate
03:44AM 4.4061 -63.1392 142° Southeast  Level FlightAware Approximate
03:45AM 4.3054 -63.0616 142° Southeast  Level FlightAware Approximate
03:46AM 4.2048 -62.9840 142° Southeast  Level FlightAware Approximate
03:47AM 4.1041 -62.9065 142° Southeast  Level FlightAware Approximate
03:48AM 4.0034 -62.8289 142° Southeast  Level FlightAware Approximate
03:49AM 3.9027 -62.7514 142° Southeast  Level FlightAware Approximate
03:50AM 3.8020 -62.6739 142° Southeast  Level FlightAware Approximate
03:51AM 3.7015 -62.5966 142° Southeast  Level FlightAware Approximate
03:52AM 3.6010 -62.5193 142° Southeast  Level FlightAware Approximate
03:53AM 3.5005 -62.4421 142° Southeast  Level FlightAware Approximate
03:54AM 3.4000 -62.3648 143° Southeast  Level FlightAware Approximate
03:55AM 3.2994 -62.2876 143° Southeast  Level FlightAware Approximate
03:56AM 3.1989 -62.2104 143° Southeast  Level FlightAware Approximate
03:57AM 3.0984 -62.1331 143° Southeast  Level FlightAware Approximate
03:58AM 2.9978 -62.0559 143° Southeast  Level FlightAware Approximate
03:59AM 2.8973 -61.9788 143° Southeast  Level FlightAware Approximate
04:00AM 2.7968 -61.9016 143° Southeast  Level FlightAware Approximate
04:01AM 2.6962 -61.8244 143° Southeast  Level FlightAware Approximate
04:02AM 2.5956 -61.7473 143° Southeast  Level FlightAware Approximate
04:03AM 2.4951 -61.6702 143° Southeast  Level FlightAware Approximate
04:04AM 2.3945 -61.5930 143° Southeast  Level FlightAware Approximate
04:05AM 2.2940 -61.5159 143° Southeast  Level FlightAware Approximate
04:06AM 2.1934 -61.4388 143° Southeast  Level FlightAware Approximate
04:07AM 2.0928 -61.3618 143° Southeast  Level FlightAware Approximate
04:08AM 1.9922 -61.2847 143° Southeast  Level FlightAware Approximate
04:09AM 1.8916 -61.2076 143° Southeast  Level FlightAware Approximate
04:10AM 1.7910 -61.1306 143° Southeast  Level FlightAware Approximate
04:11AM 1.6904 -61.0535 143° Southeast  Level FlightAware Approximate
04:12AM 1.5898 -60.9765 143° Southeast  Level FlightAware Approximate
04:13AM 1.4892 -60.8994 143° Southeast  Level FlightAware Approximate
04:14AM 1.3886 -60.8224 143° Southeast  Level FlightAware Approximate
04:15AM 1.2881 -60.7454 143° Southeast  Level FlightAware Approximate
04:16AM 1.1874 -60.6684 143° Southeast  Level FlightAware Approximate
04:17AM 1.0868 -60.5914 143° Southeast  Level FlightAware Approximate
04:18AM 0.9862 -60.5144 143° Southeast  Level FlightAware Approximate
04:19AM 0.8856 -60.4374 143° Southeast  Level FlightAware Approximate
04:20AM 0.7850 -60.3604 143° Southeast  Level FlightAware Approximate
04:21AM 0.6844 -60.2834 143° Southeast  Level FlightAware Approximate
04:22AM 0.5838 -60.2064 143° Southeast  Level FlightAware Approximate
04:23AM 0.4832 -60.1294 143° Southeast  Level FlightAware Approximate
04:24AM 0.3825 -60.0524 143° Southeast  Level FlightAware Approximate
04:25AM 0.2819 -59.9755 143° Southeast  Level FlightAware Approximate
04:26AM 0.1813 -59.8985 143° Southeast  Level FlightAware Approximate
04:27AM 0.0807 -59.8215 143° Southeast  Level FlightAware Approximate
04:28AM -0.0200 -59.7445 143° Southeast  Level FlightAware Approximate
04:29AM -0.1206 -59.6675 143° Southeast  Level FlightAware Approximate
04:30AM -0.2212 -59.5906 143° Southeast  Level FlightAware Approximate
04:31AM -0.3218 -59.5136 143° Southeast  Level FlightAware Approximate
04:32AM -0.4224 -59.4366 143° Southeast  Level FlightAware Approximate
04:33AM -0.5231 -59.3596 143° Southeast  Level FlightAware Approximate
04:34AM -0.6237 -59.2826 143° Southeast  Level FlightAware Approximate
04:35AM -0.7245 -59.2055 143° Southeast  Level FlightAware Approximate
04:36AM -0.8253 -59.1283 143° Southeast  Level FlightAware Approximate
04:37AM -0.9262 -59.0512 143° Southeast  Level FlightAware Approximate
04:38AM -1.0270 -58.9740 143° Southeast  Level FlightAware Approximate
04:39AM -1.1278 -58.8968 143° Southeast  Level FlightAware Approximate
04:40AM -1.2287 -58.8196 143° Southeast  Level FlightAware Approximate
04:41AM -1.3295 -58.7425 143° Southeast  Level FlightAware Approximate
04:42AM -1.4303 -58.6653 143° Southeast  Level FlightAware Approximate
04:43AM -1.5311 -58.5881 143° Southeast  Level FlightAware Approximate
04:44AM -1.6320 -58.5109 143° Southeast  Level FlightAware Approximate
04:45AM -1.7328 -58.4337 143° Southeast  Level FlightAware Approximate
04:46AM -1.8336 -58.3564 143° Southeast  Level FlightAware Approximate
04:47AM -1.9344 -58.2792 143° Southeast  Level FlightAware Approximate
04:48AM -2.0352 -58.2020 143° Southeast  Level FlightAware Approximate
04:49AM -2.1360 -58.1247 143° Southeast  Level FlightAware Approximate
04:50AM -2.2368 -58.0475 143° Southeast  Level FlightAware Approximate
04:51AM -2.3376 -57.9702 143° Southeast  Level FlightAware Approximate
04:52AM -2.4384 -57.8929 143° Southeast  Level FlightAware Approximate
04:53AM -2.5392 -57.8156 143° Southeast  Level FlightAware Approximate
04:54AM -2.6400 -57.7383 143° Southeast  Level FlightAware Approximate
04:55AM -2.7407 -57.6610 143° Southeast  Level FlightAware Approximate
04:56AM -2.8415 -57.5837 143° Southeast  Level FlightAware Approximate
04:57AM -2.9423 -57.5063 143° Southeast  Level FlightAware Approximate
04:58AM -3.0430 -57.4290 143° Southeast  Level FlightAware Approximate
04:59AM -3.1438 -57.3516 143° Southeast  Level FlightAware Approximate
05:00AM -3.2445 -57.2742 143° Southeast  Level FlightAware Approximate
05:01AM -3.3453 -57.1968 143° Southeast  Level FlightAware Approximate
05:02AM -3.4460 -57.1194 143° Southeast  Level FlightAware Approximate
05:03AM -3.5468 -57.0420 143° Southeast  Level FlightAware Approximate
05:04AM -3.6475 -56.9645 142° Southeast  Level FlightAware Approximate
05:05AM -3.7482 -56.8870 142° Southeast  Level FlightAware Approximate
05:06AM -3.8489 -56.8095 142° Southeast  Level FlightAware Approximate
05:07AM -3.9496 -56.7320 142° Southeast  Level FlightAware Approximate
05:08AM -4.0503 -56.6545 142° Southeast  Level FlightAware Approximate
05:09AM -4.1510 -56.5770 142° Southeast  Level FlightAware Approximate
05:10AM -4.2517 -56.4994 142° Southeast  Level FlightAware Approximate
05:11AM -4.3523 -56.4218 142° Southeast  Level FlightAware Approximate
05:12AM -4.4530 -56.3442 142° Southeast  Level FlightAware Approximate
05:13AM -4.5537 -56.2666 142° Southeast  Level FlightAware Approximate
05:14AM -4.6543 -56.1890 142° Southeast  Level FlightAware Approximate
05:15AM -4.7550 -56.1113 142° Southeast  Level FlightAware Approximate
05:16AM -4.8556 -56.0336 142° Southeast  Level FlightAware Approximate
05:17AM -4.9562 -55.9559 142° Southeast  Level FlightAware Approximate
05:18AM -5.0568 -55.8782 142° Southeast  Level FlightAware Approximate
05:19AM -5.1574 -55.8004 142° Southeast  Level FlightAware Approximate
05:20AM -5.2580 -55.7226 142° Southeast  Level FlightAware Approximate
05:21AM -5.3586 -55.6448 142° Southeast  Level FlightAware Approximate
05:22AM -5.4592 -55.5670 142° Southeast  Level FlightAware Approximate
05:23AM -5.5598 -55.4891 142° Southeast  Level FlightAware Approximate
05:24AM -5.6603 -55.4112 142° Southeast  Level FlightAware Approximate
05:25AM -5.7609 -55.3333 142° Southeast  Level FlightAware Approximate
05:26AM -5.8614 -55.2553 142° Southeast  Level FlightAware Approximate
05:27AM -5.9619 -55.1774 142° Southeast  Level FlightAware Approximate
05:28AM -6.0624 -55.0994 142° Southeast  Level FlightAware Approximate
05:29AM -6.1629 -55.0213 142° Southeast  Level FlightAware Approximate
05:30AM -6.2634 -54.9433 142° Southeast  Level FlightAware Approximate
05:31AM -6.3639 -54.8652 142° Southeast  Level FlightAware Approximate
05:32AM -6.4644 -54.7871 142° Southeast  Level FlightAware Approximate
05:33AM -6.5648 -54.7089 142° Southeast  Level FlightAware Approximate
05:34AM -6.6653 -54.6307 142° Southeast  Level FlightAware Approximate
05:35AM -6.7657 -54.5525 142° Southeast  Level FlightAware Approximate
05:36AM -6.8661 -54.4743 142° Southeast  Level FlightAware Approximate
05:37AM -6.9665 -54.3960 142° Southeast  Level FlightAware Approximate
05:38AM -7.0669 -54.3177 142° Southeast  Level FlightAware Approximate
05:39AM -7.1673 -54.2393 142° Southeast  Level FlightAware Approximate
05:40AM -7.2677 -54.1609 142° Southeast  Level FlightAware Approximate
05:41AM -7.3680 -54.0825 142° Southeast  Level FlightAware Approximate
05:42AM -7.4684 -54.0041 142° Southeast  Level FlightAware Approximate
05:43AM -7.5687 -53.9256 142° Southeast  Level FlightAware Approximate
05:44AM -7.6690 -53.8470 142° Southeast  Level FlightAware Approximate
05:45AM -7.7693 -53.7685 142° Southeast  Level FlightAware Approximate
05:46AM -7.8696 -53.6899 142° Southeast  Level FlightAware Approximate
05:47AM -7.9699 -53.6112 142° Southeast  Level FlightAware Approximate
05:48AM -8.0701 -53.5326 142° Southeast  Level FlightAware Approximate
05:49AM -8.1703 -53.4538 142° Southeast  Level FlightAware Approximate
05:50AM -8.2706 -53.3751 142° Southeast  Level FlightAware Approximate
05:51AM -8.3708 -53.2963 142° Southeast  Level FlightAware Approximate
05:52AM -8.4710 -53.2174 142° Southeast  Level FlightAware Approximate
05:53AM -8.5711 -53.1386 142° Southeast  Level FlightAware Approximate
05:54AM -8.6713 -53.0596 142° Southeast  Level FlightAware Approximate
05:55AM -8.7714 -52.9807 142° Southeast  Level FlightAware Approximate
05:56AM -8.8716 -52.9017 142° Southeast  Level FlightAware Approximate
05:57AM -8.9717 -52.8226 142° Southeast  Level FlightAware Approximate
05:58AM -9.0718 -52.7435 142° Southeast  Level FlightAware Approximate
05:59AM -9.1719 -52.6644 142° Southeast  Level FlightAware Approximate
06:00AM -9.2719 -52.5852 142° Southeast  Level FlightAware Approximate
06:01AM -9.3720 -52.5060 142° Southeast  Level FlightAware Approximate
06:02AM -9.4720 -52.4267 142° Southeast  Level FlightAware Approximate
06:03AM -9.5720 -52.3474 142° Southeast  Level FlightAware Approximate
06:04AM -9.6720 -52.2680 142° Southeast  Level FlightAware Approximate
06:05AM -9.7719 -52.1886 142° Southeast  Level FlightAware Approximate
06:06AM -9.8719 -52.1092 142° Southeast  Level FlightAware Approximate
06:07AM -9.9718 -52.0297 142° Southeast  Level FlightAware Approximate
06:08AM -10.0717 -51.9501 142° Southeast  Level FlightAware Approximate
06:09AM -10.1716 -51.8705 142° Southeast  Level FlightAware Approximate
06:10AM -10.2715 -51.7908 142° Southeast  Level FlightAware Approximate
06:11AM -10.3714 -51.7111 142° Southeast  Level FlightAware Approximate
06:12AM -10.4712 -51.6314 142° Southeast  Level FlightAware Approximate
06:13AM -10.5710 -51.5516 142° Southeast  Level FlightAware Approximate
06:14AM -10.6708 -51.4717 142° Southeast  Level FlightAware Approximate
06:15AM -10.7706 -51.3918 142° Southeast  Level FlightAware Approximate
06:16AM -10.8704 -51.3118 142° Southeast  Level FlightAware Approximate
06:17AM -10.9701 -51.2318 142° Southeast  Level FlightAware Approximate
06:18AM -11.0698 -51.1517 142° Southeast  Level FlightAware Approximate
06:19AM -11.1695 -51.0716 142° Southeast  Level FlightAware Approximate
06:20AM -11.2692 -50.9914 142° Southeast  Level FlightAware Approximate
06:21AM -11.3688 -50.9112 142° Southeast  Level FlightAware Approximate
06:22AM -11.4685 -50.8309 142° Southeast  Level FlightAware Approximate
06:23AM -11.5681 -50.7505 142° Southeast  Level FlightAware Approximate
06:24AM -11.6677 -50.6701 142° Southeast  Level FlightAware Approximate
06:25AM -11.7672 -50.5897 142° Southeast  Level FlightAware Approximate
06:26AM -11.8668 -50.5092 142° Southeast  Level FlightAware Approximate
06:27AM -11.9663 -50.4286 142° Southeast  Level FlightAware Approximate
06:28AM -12.0658 -50.3479 142° Southeast  Level FlightAware Approximate
06:29AM -12.1653 -50.2672 142° Southeast  Level FlightAware Approximate
06:30AM -12.2647 -50.1865 142° Southeast  Level FlightAware Approximate
06:31AM -12.3641 -50.1057 142° Southeast  Level FlightAware Approximate
06:32AM -12.4635 -50.0248 142° Southeast  Level FlightAware Approximate
06:33AM -12.5629 -49.9438 142° Southeast  Level FlightAware Approximate
06:34AM -12.6623 -49.8628 141° Southeast  Level FlightAware Approximate
06:35AM -12.7616 -49.7817 141° Southeast  Level FlightAware Approximate
06:36AM -12.8609 -49.7006 141° Southeast  Level FlightAware Approximate
06:37AM -12.9602 -49.6194 141° Southeast  Level FlightAware Approximate
06:38AM -13.0594 -49.5381 141° Southeast  Level FlightAware Approximate
06:39AM -13.1587 -49.4568 141° Southeast  Level FlightAware Approximate
06:40AM -13.2578 -49.3754 141° Southeast  Level FlightAware Approximate
06:40AM -14.7510 -49.1480 141° Southeast 458 527 37,000  Level FlightAware
06:41AM -13.3570 -49.2939 141° Southeast  Level FlightAware Approximate
06:41AM -14.7900 -49.1110 137° Southeast 458 527 37,000  Level FlightAware
06:42AM -14.8610 -49.0420 137° Southeast 458 527 37,000  Level FlightAware
06:42AM -14.9220 -48.9830 137° Southeast 458 527 37,000  Level FlightAware
06:43AM -14.9710 -48.9360 137° Southeast 457 526 37,000  Level FlightAware
06:44AM -15.0370 -48.8740 138° Southeast 458 527 37,000  Level FlightAware
06:44AM -15.0890 -48.8230 137° Southeast 458 527 37,000  Level FlightAware
06:46AM -15.2430 -48.6750 137° Southeast 459 528 37,000  Level FlightAware
06:46AM -15.2820 -48.6340 135° Southeast 460 529 37,000  Level FlightAware
06:47AM -15.3410 -48.5730 135° Southeast 461 531 37,000  Level FlightAware
06:48AM -15.4050 -48.5050 134° Southeast 461 531 37,000  Level FlightAware
06:48AM -15.4750 -48.4330 135° Southeast 461 531 37,000  Level FlightAware
06:49AM -15.5330 -48.3730 135° Southeast 460 529 37,000  Level FlightAware
06:50AM -15.5890 -48.3150 135° Southeast 459 528 37,000  Level FlightAware
06:51AM -15.6880 -48.2120 135° Southeast 459 528 37,000  Level FlightAware
06:52AM -15.8230 -48.0690 134° Southeast 458 527 37,000  Level FlightAware
06:53AM -15.8810 -48.0100 136° Southeast 458 527 37,000  Level FlightAware
06:53AM -15.9340 -47.9890 159° South 447 514 37,000  Level FlightAware
06:54AM -16.0160 -47.9390 150° Southeast 447 514 37,000  Level FlightAware
06:55AM -16.0910 -47.8920 149° Southeast 447 514 37,000  Level FlightAware
06:56AM -16.2150 -47.8180 150° Southeast 447 514 37,000  Level FlightAware
06:57AM -16.3160 -47.7560 149° Southeast 448 516 37,000  Level FlightAware
06:58AM -16.3930 -47.7090 150° Southeast 447 514 37,000  Level FlightAware
06:58AM -16.4950 -47.6460 149° Southeast 446 513 37,000  Level FlightAware
06:59AM -16.5600 -47.6070 150° Southeast 443 510 37,000  Level FlightAware
07:00AM -16.6480 -47.5520 149° Southeast 439 505 37,000  Level FlightAware
07:01AM -16.7260 -47.5040 149° Southeast 436 502 37,000  Level FlightAware
07:01AM -16.7870 -47.4670 150° Southeast 434 499 37,000  Level FlightAware
07:02AM -16.8560 -47.4230 149° Southeast 434 499 37,000  Level FlightAware
07:03AM -16.9140 -47.3870 149° Southeast 434 499 37,000  Level FlightAware
07:03AM -16.9880 -47.3410 149° Southeast 434 499 37,000  Level FlightAware
07:04AM -17.0460 -47.3040 149° Southeast 434 499 37,000  Level FlightAware
07:05AM -17.1050 -47.2670 149° Southeast 434 499 37,000  Level FlightAware
07:05AM -17.1480 -47.2400 149° Southeast 434 499 37,000  Level FlightAware
07:06AM -17.2220 -47.1940 149° Southeast 434 499 37,000  Level FlightAware
07:07AM -17.3410 -47.1240 151° Southeast 442 509 37,000  Level FlightAware
07:09AM -17.4945 -46.9175 128° Southeast  Level Estimated
07:09AM -17.5540 -46.9910 128° Southeast 445 512 37,000  Level FlightAware
07:09AM -17.6270 -46.9450 149° Southeast 446 513 37,000  Level FlightAware
07:10AM -17.6970 -46.9010 149° Southeast 447 514 37,000  Level FlightAware
07:11AM -17.7660 -46.8580 149° Southeast 446 513 37,000  Level FlightAware
07:12AM -17.9450 -46.7460 125° Southeast 445 512 37,000  Level FlightAware
07:13AM -17.9083 -46.6424 125° Southeast  Level Estimated
07:13AM -18.0510 -46.6790 149° Southeast 443 510 37,000  Level FlightAware
07:14AM -18.1130 -46.6400 149° Southeast 441 507 37,000  Level FlightAware
07:14AM -18.1740 -46.6020 149° Southeast 442 509 37,000  Level FlightAware
07:15AM -18.2290 -46.5530 140° Southeast 455 524 37,000  Level FlightAware
07:16AM -18.2800 -46.4730 124° Southeast 463 533 37,000  Level FlightAware
07:16AM -18.3330 -46.3780 120° Southeast 463 533 37,000  Level FlightAware
07:17AM -18.3760 -46.3030 121° Southeast 463 533 37,000  Level FlightAware
07:18AM -18.4210 -46.2220 120° Southeast 463 533 37,000  Level FlightAware
07:19AM -18.4700 -46.1350 121° Southeast 463 533 37,000  Level FlightAware
07:19AM -18.5080 -46.0670 121° Southeast 463 533 37,000  Level FlightAware
07:20AM -18.5680 -45.9600 121° Southeast 463 533 37,000  Level FlightAware
07:21AM -18.6040 -45.8950 120° Southeast 463 533 37,000  Level FlightAware
07:21AM -18.6610 -45.7940 121° Southeast 463 533 37,000  Level FlightAware
07:22AM -18.7090 -45.7070 120° Southeast 463 533 37,000 -240 Level FlightAware
07:23AM -18.7580 -45.6200 121° Southeast 463 533 36,700 -1,440 Descending FlightAware
07:24AM -18.7960 -45.5520 121° Southeast 467 537 35,100 -3,180 Descending FlightAware
07:25AM -18.8800 -45.3990 120° Southeast 483 556 30,700 -3,120 Descending FlightAware
07:25AM -18.9100 -45.3450 120° Southeast 479 551 29,400 -2,880 Descending FlightAware
07:26AM -18.9650 -45.2460 120° Southeast 472 543 27,100 -3,000 Descending FlightAware
07:27AM -19.0240 -45.1410 121° Southeast 471 542 24,400 -2,940 Descending FlightAware
07:28AM -19.1010 -45.0010 120° Southeast 453 521 21,000 -2,940 Descending FlightAware
07:29AM -19.1470 -44.9180 120° Southeast 445 512 18,800 -2,820 Descending FlightAware
07:30AM -19.1990 -44.8230 120° Southeast 434 499 16,600 -2,640 Descending FlightAware
07:30AM -19.2390 -44.7500 120° Southeast 421 484 14,900 -2,400 Descending FlightAware
07:31AM -19.2690 -44.6860 116° Southeast 405 466 13,600 -2,400 Descending FlightAware
07:32AM -19.2860 -44.6320 108° East 399 459 12,300 -1,680 Descending FlightAware
07:33AM -19.3210 -44.5130 107° East 364 419 11,000 -780 Descending FlightAware
07:34AM -19.3480 -44.4210 107° East 336 387 10,800 -360 Descending FlightAware
07:34AM -19.3630 -44.3700 107° East 297 342 10,500 -1,140 Descending FlightAware
07:35AM -19.3770 -44.3220 107° East 294 338 9,500 -2,040 Descending FlightAware
07:35AM -19.3870 -44.2860 106° East 297 342 8,500 -2,280 Descending FlightAware
07:35AM -19.3950 -44.2590 107° East 297 342 7,800 -1,980 Descending FlightAware
07:36AM -19.4030 -44.2330 108° East 293 337 7,200 -1,920 Descending FlightAware
07:36AM -19.4150 -44.1910 107° East 279 321 6,200 -1,920 Descending FlightAware
07:37AM -19.4210 -44.1720 109° East 271 312 5,800 -780 Descending FlightAware
07:37AM -19.4380 -44.1460 125° Southeast 245 282 5,700 -120 Descending FlightAware
07:37AM -19.4620 -44.1240 139° Southeast 217 250 5,700 -300 Level FlightAware
07:39AM -19.5270 -44.0660 140° Southeast 196 226 5,200 -780 Descending FlightAware
07:39AM -19.5430 -44.0500 137° Southeast 168 193 4,300 -1,560 Descending FlightAware
07:40AM -19.5570 -44.0370 139° Southeast 153 176 3,900 -840 Descending FlightAware
07:40AM -19.5760 -44.0200 140° Southeast 152 175 3,500 -840 Descending FlightAware
07:41AM -19.5920 -44.0050 139° Southeast 150 173 3,000 -900 Descending FlightAware
07:41AM -19.6050 -43.9930 139° Southeast 146 168 2,700 -720 Descending FlightAware